Flight Track Log - Related Links

Times and Time Zones

All times are in EDT time to prevent confusion due to time zone crossing. See the N454N flight status page for this flight to view local times or setup timezone preferences in your user account.

Time Position Orientation Groundspeed Altitude Reporting Facility
EDT Latitude Longitude Course Direction KTS MPH feet Rate Location/Type
Mon 10:29:53 AM 42.1083 -89.0589 164° South 234 269 4,400  Level Chicago Center
Mon 10:34:53 AM 41.6431 -88.8858 164° South 411 473 41,000 3,083 Climbing Chicago Center
Mon 10:35:53 AM 41.5303 -88.8422 164° South 419 482 22,900 -7,700 Descending Chicago Center
Mon 10:36:53 AM 41.4111 -88.7961 164° South 424 488 25,600 3,050 Climbing Chicago Center
Mon 10:37:53 AM 41.2964 -88.7531 164° South 434 499 29,000 2,200 Climbing Chicago Center
Mon 10:38:53 AM 41.1792 -88.7072 164° South 439 505 30,000 500 Climbing Chicago Center
Mon 10:39:53 AM 41.0539 -88.6589 164° South 449 517 30,000  Level Chicago Center
Mon 10:40:53 AM 40.9264 -88.6106 155° Southeast 463 533 30,000 1,300 Level Chicago Center
Mon 10:41:53 AM 40.8092 -88.5381 154° Southeast 469 540 32,600 2,650 Climbing Chicago Center
Mon 10:42:53 AM 40.7025 -88.4708 154° Southeast 456 525 35,300 1,850 Climbing Chicago Center
Mon 10:43:53 AM 40.6039 -88.4064 155° Southeast 437 503 36,300 1,000 Climbing Chicago Center
Mon 10:44:53 AM 40.4908 -88.3369 155° Southeast 442 509 37,300 1,021 Climbing Chicago Center
Mon 10:47:07 AM 40.2317 -88.1797 154° Southeast 462 532 39,600 1,021 Climbing Indianapolis Center
Mon 10:48:07 AM 40.1219 -88.1100 155° Southeast 442 509 40,600 700 Climbing Indianapolis Center
Mon 10:49:07 AM 40.0078 -88.0403 155° Southeast 449 517 41,000 200 Climbing Indianapolis Center
Mon 10:50:07 AM 39.8936 -87.9706 154° Southeast 463 533 41,000  Level Indianapolis Center
Mon 10:51:07 AM 39.7756 -87.8956 155° Southeast 465 535 41,000  Level Indianapolis Center
Mon 10:52:07 AM 39.6592 -87.8239 155° Southeast 465 535 41,000  Level Indianapolis Center
Mon 10:53:07 AM 39.5408 -87.7519 155° Southeast 472 543 41,000  Level Indianapolis Center
Mon 10:54:07 AM 39.4122 -87.6744 155° Southeast 472 543 41,000  Level Indianapolis Center
Mon 10:55:07 AM 39.2958 -87.6033 155° Southeast 460 529 41,000  Level Indianapolis Center
Mon 10:56:07 AM 39.1772 -87.5325 154° Southeast 472 543 41,000  Level Indianapolis Center
Mon 10:57:07 AM 39.0669 -87.4647 155° Southeast 456 525 41,000  Level Indianapolis Center
Mon 10:58:07 AM 38.9522 -87.3944 155° Southeast 456 525 41,000  Level Indianapolis Center
Mon 10:59:07 AM 38.8358 -87.3242 156° South 456 525 41,000  Level Indianapolis Center
Mon 11:00:07 AM 38.7436 -87.2714 155° Southeast 456 525 41,000  Level Indianapolis Center
Mon 11:01:07 AM 38.6228 -87.1989 155° Southeast 456 525 41,000  Level Indianapolis Center
Mon 11:02:07 AM 38.5100 -87.1322 155° Southeast 456 525 41,000  Level Indianapolis Center
Mon 11:03:07 AM 38.3789 -87.0542 156° South 456 525 41,000  Level Indianapolis Center
Mon 11:04:07 AM 38.2619 -86.9878 155° Southeast 464 534 41,000  Level Indianapolis Center
Mon 11:05:07 AM 38.1431 -86.9186 156° South 469 540 41,000  Level Indianapolis Center
Mon 11:06:07 AM 38.0281 -86.8528 155° Southeast 469 540 41,000  Level Indianapolis Center
Mon 11:07:07 AM 37.9153 -86.7847 156° South 469 540 41,000  Level Indianapolis Center
Mon 11:08:07 AM 37.7961 -86.7164 156° South 463 533 41,000  Level Indianapolis Center
Mon 11:09:07 AM 37.6769 -86.6483 156° South 468 539 41,000  Level Indianapolis Center
Mon 11:10:46 AM 37.4792 -86.5364 157° South 454 522 41,000  Level Memphis Center
Mon 11:11:46 AM 37.3606 -86.4717 155° Southeast 454 522 41,000  Level Memphis Center
Mon 11:12:46 AM 37.2458 -86.4042 155° Southeast 454 522 41,000  Level Memphis Center
Mon 11:13:46 AM 37.1292 -86.3372 156° South 454 522 41,000  Level Memphis Center
Mon 11:14:46 AM 37.0147 -86.2728 156° South 454 522 41,000  Level Memphis Center
Mon 11:15:46 AM 36.9339 -86.2278 155° Southeast 454 522 41,000 -550 Level Memphis Center
Mon 11:16:46 AM 36.7958 -86.1492 157° South 454 522 39,900 -1,350 Descending Memphis Center
Mon 11:17:46 AM 36.6811 -86.0881 156° South 448 516 38,300 -950 Descending Memphis Center
Mon 11:18:46 AM 36.5664 -86.0242 156° South 448 516 38,000 -650 Descending Memphis Center
Mon 11:19:46 AM 36.4411 -85.9536 156° South 448 516 37,000 -1,400 Descending Memphis Center
Mon 11:20:46 AM 36.3306 -85.8925 157° South 442 509 35,200 -1,290 Descending Memphis Center
Mon 11:22:52 AM 36.0919 -85.7656 157° South 450 518 33,000 -710 Descending Atlanta Center
Mon 11:23:52 AM 35.9761 -85.7039 156° South 450 518 33,000  Level Atlanta Center
Mon 11:24:52 AM 35.8622 -85.6403 155° Southeast 450 518 33,000  Level Atlanta Center
Mon 11:25:52 AM 35.7442 -85.5739 157° South 455 524 33,000  Level Atlanta Center
Mon 11:26:52 AM 35.6281 -85.5131 156° South 455 524 33,000  Level Atlanta Center
Mon 11:27:52 AM 35.5142 -85.4497 157° South 455 524 33,000 -850 Level Atlanta Center
Mon 11:28:52 AM 35.4103 -85.3944 157° South 460 529 31,300 -1,850 Descending Atlanta Center
Mon 11:29:52 AM 35.2983 -85.3367 156° South 452 520 29,300 -1,950 Descending Atlanta Center
Mon 11:30:52 AM 35.1822 -85.2739 156° South 452 520 27,400 -1,900 Descending Atlanta Center
Mon 11:31:52 AM 35.0658 -85.2111 159° South 452 520 25,500 -1,884 Descending Atlanta Center
Mon 11:32:53 AM 34.9494 -85.1564 176° South 458 527 23,600 -2,050 Descending Atlanta Center
Mon 11:33:52 AM 34.8328 -85.1472 178° South 430 495 21,400 -2,061 Descending Atlanta Center
Mon 11:35:04 AM 34.7181 -85.1431 178° South 424 488 19,100 -2,318 Descending Atlanta Center
Mon 11:36:04 AM 34.5678 -85.1361 154° Southeast 417 480 16,300 -2,300 Descending Atlanta Center
Mon 11:37:04 AM 34.4806 -85.0844 146° Southeast 401 461 14,500 -1,950 Descending Atlanta Center
Mon 11:38:04 AM 34.3997 -85.0181 147° Southeast 366 421 12,400 -1,950 Descending Atlanta Center
Mon 11:39:04 AM 34.3211 -84.9569 148° Southeast 345 397 10,600 -1,600 Descending Atlanta Center
Mon 11:40:04 AM 34.2503 -84.9033 148° Southeast 321 369 9,200 -1,300 Descending Atlanta Center
Mon 11:41:04 AM 34.1819 -84.8525 126° Southeast 294 338 8,000 -1,100 Descending Atlanta Center
Mon 11:42:04 AM 34.1386 -84.7792 115° Southeast 274 315 7,000 -1,450 Descending Atlanta Center
Mon 11:43:04 AM 34.1036 -84.6886 110° East 274 315 5,100 -1,000 Descending Atlanta Center
Mon 11:44:04 AM 34.0831 -84.6206 77° East 240 276 5,000 -45 Descending Atlanta Center
Mon 11:45:16 AM 34.0958 -84.5531 76° East 205 236 5,000  Level Atlanta Center
Mon 11:46:16 AM 34.1128 -84.4728 74° East 200 230 5,000  Level Atlanta Center
Mon 11:47:16 AM 34.1278 -84.4103 74° East 200 230 5,000 -350 Level Atlanta Center
Mon 11:48:16 AM 34.1425 -84.3475 122° Southeast 200 230 4,300 -476 Descending Atlanta Center
Mon 11:51:28 AM 34.0833 -84.2333 180° South 164 189 3,000 -310 Descending Atlanta TRACON
Mon 11:52:28 AM 34.0333 -84.2333 195° South 163 188 3,000  Level Atlanta TRACON
Mon 11:53:28 AM 33.9833 -84.2500 203° Southwest 158 182 3,000 -200 Level Atlanta TRACON
Mon 11:54:28 AM 33.9500 -84.2667 203° Southwest 132 152 2,600 -550 Descending Atlanta TRACON
Mon 11:55:28 AM 33.9167 -84.2833 289° West 130 150 1,900 -700 Descending Atlanta TRACON
Mon 12:02:32 PM 33.9725 -84.4758 124° Southeast  Level FlightAware Approximate
Mon 12:03:32 PM 33.9114 -84.3661 124° Southeast  Level Estimated

Login

Don't have an account? Register now (free) for customized features, flight alerts, and more!